CMA CGM Aristote — MRPN4 — position and weather

sailwx.info

Track history (hours):
 
Tides and Currents Weather Stations Pressure Air Temp Water Temp Dewpoint Dewpoint Depression Visibility Wind Speed Wind Dir Waves Ship Positions

CMA CGM Aristote

Last reported at 2017-Jan-24 20:33 UTC. Time now 2017-Jan-24 21:33 UTC.
Position N 53°32' E 009°55'.

Length 170 m; draft 6.8 m.

Type: Ship (hazmat cat A). MMSI: 235054581.

Date/timePositionNaut miles runAvg speedWind from/ knotsBaromVisibWave heightAir tempDewpointWater temp
2017-Jan-24 20:33N 53°32' E 009°55'0 0.0
2017-Jan-24 19:33N 53°32' E 009°55'0 0.0
2017-Jan-24 18:33N 53°32' E 009°55'0 0.0
2017-Jan-24 17:33N 53°32' E 009°55'0 0.0
2017-Jan-24 16:33N 53°32' E 009°55'0 0.0
2017-Jan-24 15:33N 53°32' E 009°55'0 0.0
2017-Jan-24 14:33N 53°32' E 009°55'0 0.0
2017-Jan-24 13:33N 53°32' E 009°55'0 0.0
2017-Jan-24 12:33N 53°32' E 009°55'0 0.0
2017-Jan-24 11:33N 53°32' E 009°55'0 0.0
2017-Jan-24 10:33N 53°32' E 009°55'0 0.0
2017-Jan-24 09:33N 53°32' E 009°55'0 0.0
2017-Jan-24 08:33N 53°32' E 009°55'5 4.9
2017-Jan-24 07:33N 53°33' E 009°47'1111.2
2017-Jan-24 06:33N 53°39' E 009°31'1312.8
2017-Jan-24 05:33N 53°50' E 009°20'1010.0
2017-Jan-24 04:33N 53°52' E 009°03'1111.1
2017-Jan-24 03:34N 53°52' E 008°45'1110.9
2017-Jan-24 02:33N 53°58' E 008°30'1212.4
2017-Jan-24 01:33N 53°59' E 008°09'12317.5
2017-Jan-23 18:33N 53°25' E 004°50'2317.4
2017-Jan-23 17:14N 53°07' E 004°27'1217.9
2017-Jan-23 16:33N 52°56' E 004°18'1818.0
2017-Jan-23 15:33N 52°41' E 004°03'1817.8
2017-Jan-23 14:33N 52°24' E 003°53'1818.3
2017-Jan-23 13:33N 52°06' E 003°55'10 9.6
2017-Jan-23 12:33N 51°59' E 004°06'1010.1
2017-Jan-23 11:33N 51°54' E 004°20'4 3.7
2017-Jan-23 10:32N 51°54' E 004°26'0 0.0
2017-Jan-23 09:32N 51°54' E 004°26'0 0.0
2017-Jan-23 08:31N 51°54' E 004°26'0 0.0
2017-Jan-23 07:32N 51°54' E 004°26'0 0.0
2017-Jan-23 06:32N 51°54' E 004°26'0 0.0
2017-Jan-23 05:32N 51°54' E 004°26'0 0.0
2017-Jan-23 04:32N 51°54' E 004°26'0 0.0
2017-Jan-23 03:32N 51°54' E 004°26'0 0.0
2017-Jan-23 02:32N 51°54' E 004°26'0 0.0
2017-Jan-23 01:32N 51°54' E 004°26'0 0.0
2017-Jan-23 00:32N 51°54' E 004°26'0 0.0
2017-Jan-22 23:32N 51°54' E 004°26'0 0.0
2017-Jan-22 22:32N 51°54' E 004°26'0 0.0
2017-Jan-22 21:31N 51°54' E 004°26'0 0.0
2017-Jan-22 20:32N 51°54' E 004°26'0 0.0
2017-Jan-22 19:31N 51°54' E 004°26'0 0.0
2017-Jan-22 18:32N 51°54' E 004°26'0 0.0
2017-Jan-22 17:32N 51°54' E 004°26'0 0.0
2017-Jan-22 16:32N 51°54' E 004°26'0 0.0
2017-Jan-22 15:32N 51°54' E 004°26'0 0.0
2017-Jan-22 14:32N 51°54' E 004°26'2 2.0
2017-Jan-22 13:34N 51°54' E 004°23'9 9.1
2017-Jan-22 12:33N 51°57' E 004°09'1110.8
2017-Jan-22 11:33N 52°01' E 003°53'7 6.7
2017-Jan-22 10:33N 51°58' E 003°42'1110.4
2017-Jan-22 09:33N 51°55' E 003°26'1010.4
2017-Jan-22 08:33N 51°53' E 003°10'1111.4
2017-Jan-22 07:33N 51°49' E 002°52'1312.6
2017-Jan-22 06:31N 51°42' E 002°34'1111.5
2017-Jan-22 05:34N 51°35' E 002°21'1212.2
2017-Jan-22 04:33N 51°26' E 002°09'9 9.4
2017-Jan-22 03:33N 51°27' E 001°54'1110.6
2017-Jan-22 02:34N 51°29' E 001°37'7 7.2
2017-Jan-22 01:33N 51°27' E 001°26'1312.7
2017-Jan-22 00:33N 51°30' E 001°06'1313.4
2017-Jan-21 23:33N 51°30' E 000°45'1413.8
2017-Jan-21 22:33N 51°27' E 000°23'2 1.9
2017-Jan-21 21:33N 51°27' E 000°20'0 0.0
2017-Jan-21 20:33N 51°27' E 000°20'0 0.0
2017-Jan-21 19:33N 51°27' E 000°20'0 0.0
2017-Jan-21 18:33N 51°27' E 000°20'0 0.0
2017-Jan-21 17:33N 51°27' E 000°20'0 0.0
2017-Jan-21 16:33N 51°27' E 000°20'0 0.0
2017-Jan-21 15:33N 51°27' E 000°20'0 0.0
2017-Jan-21 14:33N 51°27' E 000°20'1 1.1
2017-Jan-21 13:33N 51°27' E 000°22'1111.0
2017-Jan-21 12:34N 51°30' E 000°38'1414.2
2017-Jan-21 11:33N 51°30' E 001°01'1211.6
2017-Jan-21 10:33N 51°29' E 001°20'1110.8
2017-Jan-21 09:33N 51°23' E 001°34'9 9.3
2017-Jan-21 08:33N 51°14' E 001°38'9 8.7
2017-Jan-21 07:33N 51°05' E 001°38'1211.6
2017-Jan-21 06:34N 50°57' E 001°26'1211.9
2017-Jan-21 05:33N 50°45' E 001°21'3311.0
2017-Jan-21 02:33N 50°26' E 000°38'1211.5
2017-Jan-21 01:33N 50°23' E 000°21'1212.1
2017-Jan-21 00:33N 50°20' E 000°03'1212.4
2017-Jan-20 23:33N 50°17' W 000°16'1512.7
2017-Jan-20 22:22N 50°13' W 000°39'2412.5
2017-Jan-20 20:28N 50°07' W 001°15'1011.5
2017-Jan-20 19:34N 50°05' W 001°31'1111.0
2017-Jan-20 18:34N 50°01' W 001°47'1111.3
2017-Jan-20 17:33N 49°59' W 002°04'2411.0
2017-Jan-20 15:21N 49°52' W 002°40'911.6
2017-Jan-20 14:34N 49°48' W 002°54'1211.7
2017-Jan-20 13:33N 49°43' W 003°10'8612.0
2017-Jan-20 06:21N 48°59' W 005°04'912.0
2017-Jan-20 05:33N 48°54' W 005°16'1211.7
2017-Jan-20 04:32N 48°48' W 005°31'1311.2
2017-Jan-20 03:23N 48°38' W 005°43'58215.6
2017-Jan-18 14:10N 39°24' W 009°51'1016.9
2017-Jan-18 13:33N 39°14' W 009°51'1717.3
2017-Jan-18 12:33N 38°57' W 009°52'1717.4
2017-Jan-18 11:34N 38°39' W 009°51'1817.8
2017-Jan-18 10:34N 38°22' W 009°45'2417.9
2017-Jan-18 09:14N 37°59' W 009°37'1217.8
2017-Jan-18 08:33N 37°47' W 009°34'2217.7
2017-Jan-18 07:19N 37°26' W 009°30'19916.3
2017-Jan-17 19:04N 35°57' W 005°47'816.1
2017-Jan-17 18:33N 35°58' W 005°37'6 0.5
2017-Jan-17 05:33N 35°55' W 005°30'1 1.3
2017-Jan-17 04:33N 35°55' W 005°32'1 1.0
2017-Jan-17 03:33N 35°55' W 005°33'2 1.5
2017-Jan-17 02:21N 35°54' W 005°35'7 3.9
2017-Jan-17 00:33N 35°59' W 005°28'7 7.1
2017-Jan-16 23:33N 36°01' W 005°20'9 8.7
2017-Jan-16 22:33N 36°03' W 005°10'  
Track history (hours):
 
Tides and Currents Weather Stations Pressure Air Temp Water Temp Dewpoint Dewpoint Depression Visibility Wind Speed Wind Dir Waves Ship Positions

CMA CGM Aristote

Last reported at 2017-Jan-24 20:33 UTC. Time now 2017-Jan-24 21:33 UTC.
Position N 53°32' E 009°55'.

Length 170 m; draft 6.8 m.

Type: Ship (hazmat cat A). MMSI: 235054581.

Date/timePositionNaut miles runAvg speedWind from/ knotsBaromVisibWave heightAir tempDewpointWater temp
2017-Jan-24 20:33N 53°32' E 009°55'0 0.0
2017-Jan-24 19:33N 53°32' E 009°55'0 0.0
2017-Jan-24 18:33N 53°32' E 009°55'0 0.0
2017-Jan-24 17:33N 53°32' E 009°55'0 0.0
2017-Jan-24 16:33N 53°32' E 009°55'0 0.0
2017-Jan-24 15:33N 53°32' E 009°55'0 0.0
2017-Jan-24 14:33N 53°32' E 009°55'0 0.0
2017-Jan-24 13:33N 53°32' E 009°55'0 0.0
2017-Jan-24 12:33N 53°32' E 009°55'0 0.0
2017-Jan-24 11:33N 53°32' E 009°55'0 0.0
2017-Jan-24 10:33N 53°32' E 009°55'0 0.0
2017-Jan-24 09:33N 53°32' E 009°55'0 0.0
2017-Jan-24 08:33N 53°32' E 009°55'5 4.9
2017-Jan-24 07:33N 53°33' E 009°47'1111.2
2017-Jan-24 06:33N 53°39' E 009°31'1312.8
2017-Jan-24 05:33N 53°50' E 009°20'1010.0
2017-Jan-24 04:33N 53°52' E 009°03'1111.1
2017-Jan-24 03:34N 53°52' E 008°45'1110.9
2017-Jan-24 02:33N 53°58' E 008°30'1212.4
2017-Jan-24 01:33N 53°59' E 008°09'12317.5
2017-Jan-23 18:33N 53°25' E 004°50'2317.4
2017-Jan-23 17:14N 53°07' E 004°27'1217.9
2017-Jan-23 16:33N 52°56' E 004°18'1818.0
2017-Jan-23 15:33N 52°41' E 004°03'1817.8
2017-Jan-23 14:33N 52°24' E 003°53'1818.3
2017-Jan-23 13:33N 52°06' E 003°55'10 9.6
2017-Jan-23 12:33N 51°59' E 004°06'1010.1
2017-Jan-23 11:33N 51°54' E 004°20'4 3.7
2017-Jan-23 10:32N 51°54' E 004°26'0 0.0
2017-Jan-23 09:32N 51°54' E 004°26'0 0.0
2017-Jan-23 08:31N 51°54' E 004°26'0 0.0
2017-Jan-23 07:32N 51°54' E 004°26'0 0.0
2017-Jan-23 06:32N 51°54' E 004°26'0 0.0
2017-Jan-23 05:32N 51°54' E 004°26'0 0.0
2017-Jan-23 04:32N 51°54' E 004°26'0 0.0
2017-Jan-23 03:32N 51°54' E 004°26'0 0.0
2017-Jan-23 02:32N 51°54' E 004°26'0 0.0
2017-Jan-23 01:32N 51°54' E 004°26'0 0.0
2017-Jan-23 00:32N 51°54' E 004°26'0 0.0
2017-Jan-22 23:32N 51°54' E 004°26'0 0.0
2017-Jan-22 22:32N 51°54' E 004°26'0 0.0
2017-Jan-22 21:31N 51°54' E 004°26'0 0.0
2017-Jan-22 20:32N 51°54' E 004°26'0 0.0
2017-Jan-22 19:31N 51°54' E 004°26'0 0.0
2017-Jan-22 18:32N 51°54' E 004°26'0 0.0
2017-Jan-22 17:32N 51°54' E 004°26'0 0.0
2017-Jan-22 16:32N 51°54' E 004°26'0 0.0
2017-Jan-22 15:32N 51°54' E 004°26'0 0.0
2017-Jan-22 14:32N 51°54' E 004°26'2 2.0
2017-Jan-22 13:34N 51°54' E 004°23'9 9.1
2017-Jan-22 12:33N 51°57' E 004°09'1110.8
2017-Jan-22 11:33N 52°01' E 003°53'7 6.7
2017-Jan-22 10:33N 51°58' E 003°42'1110.4
2017-Jan-22 09:33N 51°55' E 003°26'1010.4
2017-Jan-22 08:33N 51°53' E 003°10'1111.4
2017-Jan-22 07:33N 51°49' E 002°52'1312.6
2017-Jan-22 06:31N 51°42' E 002°34'1111.5
2017-Jan-22 05:34N 51°35' E 002°21'1212.2
2017-Jan-22 04:33N 51°26' E 002°09'9 9.4
2017-Jan-22 03:33N 51°27' E 001°54'1110.6
2017-Jan-22 02:34N 51°29' E 001°37'7 7.2
2017-Jan-22 01:33N 51°27' E 001°26'1312.7
2017-Jan-22 00:33N 51°30' E 001°06'1313.4
2017-Jan-21 23:33N 51°30' E 000°45'1413.8
2017-Jan-21 22:33N 51°27' E 000°23'2 1.9
2017-Jan-21 21:33N 51°27' E 000°20'0 0.0
2017-Jan-21 20:33N 51°27' E 000°20'0 0.0
2017-Jan-21 19:33N 51°27' E 000°20'0 0.0
2017-Jan-21 18:33N 51°27' E 000°20'0 0.0
2017-Jan-21 17:33N 51°27' E 000°20'0 0.0
2017-Jan-21 16:33N 51°27' E 000°20'0 0.0
2017-Jan-21 15:33N 51°27' E 000°20'0 0.0
2017-Jan-21 14:33N 51°27' E 000°20'1 1.1
2017-Jan-21 13:33N 51°27' E 000°22'1111.0
2017-Jan-21 12:34N 51°30' E 000°38'1414.2
2017-Jan-21 11:33N 51°30' E 001°01'1211.6
2017-Jan-21 10:33N 51°29' E 001°20'1110.8
2017-Jan-21 09:33N 51°23' E 001°34'9 9.3
2017-Jan-21 08:33N 51°14' E 001°38'9 8.7
2017-Jan-21 07:33N 51°05' E 001°38'1211.6
2017-Jan-21 06:34N 50°57' E 001°26'1211.9
2017-Jan-21 05:33N 50°45' E 001°21'3311.0
2017-Jan-21 02:33N 50°26' E 000°38'1211.5
2017-Jan-21 01:33N 50°23' E 000°21'1212.1
2017-Jan-21 00:33N 50°20' E 000°03'1212.4
2017-Jan-20 23:33N 50°17' W 000°16'1512.7
2017-Jan-20 22:22N 50°13' W 000°39'2412.5
2017-Jan-20 20:28N 50°07' W 001°15'1011.5
2017-Jan-20 19:34N 50°05' W 001°31'1111.0
2017-Jan-20 18:34N 50°01' W 001°47'1111.3
2017-Jan-20 17:33N 49°59' W 002°04'2411.0
2017-Jan-20 15:21N 49°52' W 002°40'911.6
2017-Jan-20 14:34N 49°48' W 002°54'1211.7
2017-Jan-20 13:33N 49°43' W 003°10'8612.0
2017-Jan-20 06:21N 48°59' W 005°04'912.0
2017-Jan-20 05:33N 48°54' W 005°16'1211.7
2017-Jan-20 04:32N 48°48' W 005°31'1311.2
2017-Jan-20 03:23N 48°38' W 005°43'58215.6
2017-Jan-18 14:10N 39°24' W 009°51'1016.9
2017-Jan-18 13:33N 39°14' W 009°51'1717.3
2017-Jan-18 12:33N 38°57' W 009°52'1717.4
2017-Jan-18 11:34N 38°39' W 009°51'1817.8
2017-Jan-18 10:34N 38°22' W 009°45'2417.9
2017-Jan-18 09:14N 37°59' W 009°37'1217.8
2017-Jan-18 08:33N 37°47' W 009°34'2217.7
2017-Jan-18 07:19N 37°26' W 009°30'19916.3
2017-Jan-17 19:04N 35°57' W 005°47'816.1
2017-Jan-17 18:33N 35°58' W 005°37'6 0.5
2017-Jan-17 05:33N 35°55' W 005°30'1 1.3
2017-Jan-17 04:33N 35°55' W 005°32'1 1.0
2017-Jan-17 03:33N 35°55' W 005°33'2 1.5
2017-Jan-17 02:21N 35°54' W 005°35'7 3.9
2017-Jan-17 00:33N 35°59' W 005°28'7 7.1
2017-Jan-16 23:33N 36°01' W 005°20'9 8.7
2017-Jan-16 22:33N 36°03' W 005°10'  

Dump ship's entire track history